< < Back
Terminal Aerodrome Forecast


Current Version              Previous Versions:   1  2  3  4  5  6  7  8  9  

Terminal Aerodrome Forecast

878
FTUS42 KGSP 022320
TAFGSP
TAF
KGSP 022320Z 0300/0324 17009KT P6SM -TSRA SCT050CB BKN080
     FM030300 20005KT P6SM SCT030 OVC060
      TEMPO 0303/0307 4SM -TSRA OVC025CB
     FM031300 24010G18KT P6SM SCT045 BKN200 PROB30 0314/0320 4SM
      -TSRA BKN045CB=



Latest METAR

825
SAUS70 KWBC 030300 RRE
MTRGSP
METAR KGSP 030253Z 19009KT 10SM CLR 21/18 A2992 RMK AO2 LTG DSNT N
SLP119 T02110183 51015


USA.gov is the U.S. government's official web portal to all federal, state and local government web resources and services.